createdAt,value
2018-04-15T00:46:25.765Z,95012.55
2018-04-15T00:48:58.980Z,95019.97
2018-04-15T00:51:32.262Z,95014.80
2018-04-15T00:54:17.458Z,95015.25
2018-04-15T00:56:50.731Z,95014.14
2018-04-15T00:59:23.995Z,95016.21
2018-04-15T02:32:59.618Z,94968.45
2018-04-15T02:35:32.869Z,94963.93
2018-04-15T02:38:06.158Z,94968.24
2018-04-15T02:40:39.412Z,94960.96
2018-04-15T02:43:12.688Z,94952.34
2018-04-15T03:47:32.036Z,94973.36
2018-04-15T03:50:05.281Z,94979.66
2018-04-15T03:52:38.547Z,94976.69
2018-04-15T03:55:12.684Z,94970.83
2018-04-15T03:57:45.945Z,94961.41
2018-04-15T05:02:06.593Z,94958.43
2018-04-15T05:04:40.184Z,94962.87
2018-04-15T05:07:14.196Z,94965.22
2018-04-15T05:09:48.269Z,94964.22
2018-04-15T05:12:21.499Z,94974.48
2018-04-15T05:14:55.539Z,94974.09
2018-04-15T05:17:28.787Z,94972.34
2018-04-15T05:20:02.053Z,94969.39
2018-04-15T05:22:35.309Z,94975.05
2018-04-15T05:25:09.339Z,94973.20
2018-04-15T05:27:42.596Z,94970.04
2018-04-15T05:30:15.866Z,94979.66
2018-04-15T05:32:49.108Z,94979.14
2018-04-15T05:35:22.392Z,94981.00
2018-04-15T05:37:55.644Z,94985.13
2018-04-15T05:40:28.917Z,94984.73
2018-04-15T05:43:02.159Z,94981.80
2018-04-15T05:45:36.202Z,94980.07
2018-04-15T05:48:09.456Z,94977.63
2018-04-15T05:50:43.494Z,94972.72
2018-04-15T05:53:16.743Z,94969.04
2018-04-15T05:55:50.032Z,94971.39
2018-04-15T05:58:23.275Z,94965.25
2018-04-15T06:00:56.546Z,94963.83
2018-04-15T06:03:30.559Z,94960.34
2018-04-15T06:06:03.841Z,94962.80
2018-04-15T06:08:37.089Z,94949.85
2018-04-15T06:11:10.373Z,94954.63
2018-04-15T06:13:43.623Z,94947.56
2018-04-15T06:16:17.668Z,94947.36
2018-04-15T06:18:50.918Z,94946.79
2018-04-15T06:21:24.199Z,94944.95
2018-04-15T06:23:57.456Z,94943.55
2018-04-15T06:26:30.724Z,94936.12
2018-04-15T06:29:04.740Z,94934.48
2018-04-15T06:31:38.766Z,94930.63
2018-04-15T06:34:12.016Z,94934.64
2018-04-15T06:36:45.358Z,94939.27
2018-04-15T06:39:18.553Z,94929.88
2018-04-15T06:41:51.821Z,94927.31
2018-04-15T06:44:25.832Z,94929.69
2018-04-15T06:46:59.880Z,94939.95
2018-04-15T06:49:33.157Z,94939.05
2018-04-15T06:52:06.477Z,94941.83
2018-04-15T06:54:39.735Z,94936.28
2018-04-15T06:57:13.003Z,94939.47
2018-04-15T06:59:46.260Z,94938.45
2018-04-15T07:02:19.526Z,94932.18
2018-04-15T07:04:52.787Z,94938.75
2018-04-15T07:07:26.067Z,94932.81
2018-04-15T07:09:59.335Z,94925.39
2018-04-15T07:12:32.604Z,94922.73
2018-04-15T07:15:05.858Z,94914.22
2018-04-15T07:17:39.141Z,94914.70
2018-04-15T07:20:12.392Z,94903.81
2018-04-15T07:22:45.673Z,94902.25
2018-04-15T07:25:18.924Z,94902.17
2018-04-15T07:27:52.202Z,94899.03
2018-04-15T07:30:25.506Z,94896.40
2018-04-15T07:32:58.749Z,94897.68
2018-04-15T07:35:32.018Z,94901.22
2018-04-15T07:38:06.121Z,94897.83
2018-04-15T07:40:39.380Z,94898.91
2018-04-15T07:43:12.667Z,94888.11
2018-04-15T07:45:45.963Z,94892.94
2018-04-15T07:48:20.188Z,94892.22
2018-04-15T07:50:53.594Z,94884.48
2018-04-15T07:53:26.879Z,94884.77
2018-04-15T07:56:00.311Z,94883.62
2018-04-15T07:58:33.591Z,94881.36
2018-04-15T08:01:06.879Z,94892.91
2018-04-15T08:03:40.124Z,94894.89
2018-04-15T08:06:13.408Z,94899.08
2018-04-15T08:08:46.676Z,94891.23
2018-04-15T08:11:20.429Z,94900.44
2018-04-15T08:13:54.541Z,94905.95
2018-04-15T08:16:27.898Z,94904.09
2018-04-15T08:19:01.186Z,94899.05
2018-04-15T08:21:34.636Z,94906.16
2018-04-15T08:24:07.993Z,94913.19
2018-04-15T08:26:42.059Z,94922.49
2018-04-15T08:29:15.464Z,94914.48
2018-04-15T08:31:48.997Z,94925.48
2018-04-15T08:34:22.278Z,94933.44
2018-04-15T08:36:55.596Z,94929.36
2018-04-15T08:39:29.741Z,94913.48
2018-04-15T08:42:03.115Z,94912.48
2018-04-15T08:44:37.175Z,94902.72
2018-04-15T08:47:10.959Z,94896.08
2018-04-15T08:49:44.659Z,94893.18
2018-04-15T08:52:18.527Z,94889.13
2018-04-15T08:54:51.916Z,94886.02
2018-04-15T08:57:26.473Z,94889.62
2018-04-15T09:00:00.101Z,94882.16
2018-04-15T09:02:33.436Z,94877.08
2018-04-15T09:05:09.554Z,94870.91
2018-04-15T09:07:43.053Z,94876.42
2018-04-15T09:10:16.449Z,94878.46
2018-04-15T09:12:49.744Z,94880.83
2018-04-15T09:15:23.027Z,94887.84
2018-04-15T09:17:56.561Z,94891.84
2018-04-15T09:20:32.112Z,94894.37
2018-04-15T09:23:08.260Z,94883.68
2018-04-15T09:25:46.479Z,94881.67
2018-04-15T09:28:20.056Z,94873.20
2018-04-15T09:30:58.837Z,94863.64
2018-04-15T09:33:32.086Z,94877.05
2018-04-15T09:36:05.363Z,94880.89
2018-04-15T09:38:39.384Z,94872.55
2018-04-15T09:41:12.657Z,94871.63
2018-04-15T09:43:46.678Z,94861.36
2018-04-15T09:46:19.972Z,94860.03
2018-04-15T09:48:53.208Z,94860.80
2018-04-15T09:51:26.481Z,94856.17
2018-04-15T09:53:59.739Z,94857.88
2018-04-15T09:56:33.007Z,94849.63
2018-04-15T09:59:06.264Z,94855.05
2018-04-15T10:01:39.561Z,94844.72
2018-04-15T10:04:12.812Z,94842.60
2018-04-15T10:06:46.855Z,94845.20
2018-04-15T10:09:20.107Z,94843.98
2018-04-15T10:11:53.383Z,94841.45
2018-04-15T10:14:26.656Z,94839.71
2018-04-15T10:16:59.980Z,94840.37
2018-04-15T10:19:33.182Z,94839.95
2018-04-15T10:22:06.505Z,94846.41
2018-04-15T10:24:40.526Z,94841.22
2018-04-15T10:27:14.591Z,94836.67
2018-04-15T10:29:47.849Z,94831.16
2018-04-15T10:32:21.128Z,94826.66
2018-04-15T10:34:54.390Z,94824.53
2018-04-15T10:37:27.736Z,94825.87
2018-04-15T10:40:01.004Z,94830.55
2018-04-15T10:42:34.326Z,94831.45
2018-04-15T10:45:08.308Z,94822.39
2018-04-15T10:47:42.367Z,94824.11
2018-04-15T10:50:15.657Z,94815.52
2018-04-15T10:52:48.932Z,94815.02
2018-04-15T10:55:22.193Z,94809.56
2018-04-15T10:57:55.475Z,94809.34
2018-04-15T11:00:28.728Z,94812.89
2018-04-15T11:03:02.117Z,94811.78
2018-04-15T11:05:35.405Z,94813.26
2018-04-15T11:08:08.684Z,94801.73
2018-04-15T11:10:41.937Z,94795.97
2018-04-15T11:13:15.204Z,94788.27
2018-04-15T11:15:48.471Z,94780.01
2018-04-15T11:18:21.793Z,94771.23
2018-04-15T11:20:55.064Z,94761.14
2018-04-15T11:23:28.376Z,94759.59
2018-04-15T11:26:01.654Z,94747.69
2018-04-15T11:28:34.941Z,94742.38
2018-04-15T11:31:08.210Z,94739.22
2018-04-15T11:33:41.479Z,94740.38
2018-04-15T11:36:14.756Z,94739.57
2018-04-15T11:38:48.017Z,94739.50
2018-04-15T11:41:21.295Z,94740.09
2018-04-15T11:43:54.551Z,94740.45
2018-04-15T11:46:27.836Z,94733.07
2018-04-15T11:49:01.097Z,94729.44
2018-04-15T11:51:34.410Z,94725.52
2018-04-15T11:54:08.418Z,94729.08
2018-04-15T11:56:41.698Z,94715.02
2018-04-15T11:59:14.955Z,94730.53
2018-04-15T12:01:48.229Z,94730.67
2018-04-15T12:04:21.478Z,94730.45
2018-04-15T12:06:54.756Z,94724.73
2018-04-15T12:09:28.024Z,94731.14
2018-04-15T12:12:01.310Z,94726.19
2018-04-15T12:14:34.588Z,94724.48
2018-04-15T12:17:07.859Z,94719.91
2018-04-15T12:19:41.127Z,94717.05
2018-04-15T12:22:14.421Z,94696.03
2018-04-15T12:24:47.676Z,94695.98
2018-04-15T12:27:21.083Z,94705.64
2018-04-15T12:29:54.382Z,94706.41
2018-04-15T12:32:27.704Z,94704.30
2018-04-15T12:35:00.967Z,94706.91
2018-04-15T12:37:34.244Z,94715.72
2018-04-15T12:40:07.503Z,94715.53
2018-04-15T12:42:40.767Z,94707.42
2018-04-15T12:45:14.807Z,94702.64
2018-04-15T12:47:48.104Z,94698.14
2018-04-15T12:50:21.364Z,94697.45
2018-04-15T12:52:55.409Z,94692.97
2018-04-15T12:55:28.737Z,94694.98
2018-04-15T12:58:02.018Z,94679.13
2018-04-15T13:00:35.268Z,94677.98
2018-04-15T13:03:09.308Z,94677.75
2018-04-15T13:05:42.589Z,94677.92
2018-04-15T13:08:15.850Z,94687.73
2018-04-15T13:10:49.895Z,94683.83
2018-04-15T13:13:23.155Z,94680.97
2018-04-15T13:15:56.430Z,94682.44
2018-04-15T13:18:29.685Z,94667.67
2018-04-15T13:21:02.967Z,94676.42
2018-04-15T13:23:36.276Z,94669.97
2018-04-15T13:26:09.545Z,94670.08
2018-04-15T13:28:42.879Z,94675.75
2018-04-15T13:31:16.593Z,94670.17
2018-04-15T13:33:49.880Z,94670.00
2018-04-15T13:36:23.159Z,94663.36
2018-04-15T13:38:56.427Z,94659.24
2018-04-15T13:41:29.708Z,94652.14
2018-04-15T13:44:02.965Z,94641.09
2018-04-15T13:46:36.255Z,94640.66
2018-04-15T13:49:09.519Z,94645.88
2018-04-15T13:51:42.796Z,94643.45
2018-04-15T13:54:16.059Z,94646.45
2018-04-15T13:56:49.326Z,94632.02
2018-04-15T13:59:22.590Z,94629.30
2018-04-15T14:01:55.855Z,94619.06
2018-04-15T14:04:29.117Z,94622.16
2018-04-15T14:07:02.399Z,94618.00
2018-04-15T14:09:35.865Z,94617.12
2018-04-15T14:12:09.166Z,94617.17
2018-04-15T14:14:42.406Z,94617.70
2018-04-15T14:17:15.701Z,94619.62
2018-04-15T14:19:48.952Z,94618.34
2018-04-15T14:22:22.232Z,94607.25
2018-04-15T14:24:55.492Z,94595.64
2018-04-15T14:27:28.771Z,94599.16
2018-04-15T14:30:02.027Z,94593.85
2018-04-15T14:32:35.304Z,94605.26
2018-04-15T14:35:08.567Z,94604.28
2018-04-15T14:37:42.436Z,94594.76
2018-04-15T14:40:15.702Z,94577.27
2018-04-15T14:42:49.735Z,94583.50
2018-04-15T14:45:22.995Z,94580.05
2018-04-15T14:47:57.034Z,94567.05
2018-04-15T14:50:30.288Z,94559.34
2018-04-15T14:53:03.560Z,94565.17
2018-04-15T14:55:36.813Z,94569.26
2018-04-15T14:58:10.091Z,94576.69
2018-04-15T15:00:43.359Z,94564.13
2018-04-15T15:03:16.640Z,94563.59
2018-04-15T15:05:49.895Z,94556.84
2018-04-15T15:08:23.163Z,94561.56
2018-04-15T15:10:56.476Z,94555.84
2018-04-15T15:13:29.816Z,94552.81
2018-04-15T15:16:03.084Z,94552.14
2018-04-15T15:18:36.337Z,94556.63
2018-04-15T15:21:09.948Z,94564.17
2018-04-15T15:23:43.200Z,94570.65
2018-04-15T15:26:16.742Z,94568.36
2018-04-15T15:28:50.003Z,94568.66
2018-04-15T15:31:23.287Z,94566.20
2018-04-15T15:33:56.557Z,94561.58
2018-04-15T15:36:29.825Z,94553.63
2018-04-15T15:39:03.078Z,94550.38
2018-04-15T15:41:36.368Z,94552.63
2018-04-15T15:44:09.630Z,94548.31
2018-04-15T15:46:42.909Z,94548.00
2018-04-15T15:49:16.161Z,94549.63
2018-04-15T15:51:49.439Z,94550.92
2018-04-15T15:54:22.696Z,94553.48
2018-04-15T15:56:55.979Z,94548.50
2018-04-15T15:59:29.272Z,94562.25
2018-04-15T16:02:02.509Z,94565.75
2018-04-15T16:04:35.771Z,94561.04
2018-04-15T16:07:09.055Z,94562.66
2018-04-15T16:09:42.308Z,94566.83
2018-04-15T16:12:15.745Z,94567.33
2018-04-15T16:14:49.002Z,94571.36
2018-04-15T16:17:22.433Z,94568.13
2018-04-15T16:19:55.700Z,94567.98
2018-04-15T16:22:29.743Z,94562.16
2018-04-15T16:25:03.000Z,94547.46
2018-04-15T16:27:36.293Z,94549.02
2018-04-15T16:30:09.637Z,94556.12
2018-04-15T16:32:42.914Z,94551.67
2018-04-15T16:35:16.182Z,94547.67
2018-04-15T16:37:50.272Z,94554.91
2018-04-15T16:40:23.535Z,94555.17
2018-04-15T16:42:57.010Z,94553.41
2018-04-15T16:45:30.271Z,94551.47
2018-04-15T16:48:03.548Z,94549.63
2018-04-15T16:50:36.818Z,94548.35
2018-04-15T16:53:10.099Z,94547.40
2018-04-15T16:55:43.370Z,94548.83
2018-04-15T16:58:16.896Z,94546.31
2018-04-15T17:00:50.170Z,94543.08
2018-04-15T17:03:23.447Z,94537.23
2018-04-15T17:05:57.467Z,94539.31
2018-04-15T17:08:30.761Z,94549.18
2018-04-15T17:11:04.808Z,94550.94
2018-04-15T17:13:38.071Z,94548.50
2018-04-15T17:16:12.105Z,94544.34
2018-04-15T17:18:45.408Z,94535.94
2018-04-15T17:21:18.675Z,94527.05
2018-04-15T17:23:52.711Z,94537.97
2018-04-15T17:26:25.969Z,94531.84
2018-04-15T17:29:00.028Z,94542.42
2018-04-15T17:31:33.292Z,94546.63
2018-04-15T17:34:06.591Z,94557.09
2018-04-15T17:36:39.837Z,94557.14
2018-04-15T17:39:13.108Z,94560.15
2018-04-15T17:41:46.369Z,94574.91
2018-04-15T17:44:19.652Z,94575.66
2018-04-15T17:46:53.684Z,94571.11
2018-04-15T17:49:26.985Z,94575.73
2018-04-15T17:52:00.240Z,94578.78
2018-04-15T17:54:33.519Z,94585.30
2018-04-15T17:57:06.777Z,94588.52
2018-04-15T17:59:40.051Z,94594.33
2018-04-15T18:02:13.324Z,94594.78
2018-04-15T18:04:47.363Z,94593.36
2018-04-15T18:07:20.644Z,94590.09
2018-04-15T18:09:54.692Z,94592.84
2018-04-15T18:12:27.971Z,94595.82
2018-04-15T18:15:01.318Z,94589.72
2018-04-15T18:17:35.380Z,94594.51
2018-04-15T18:20:08.696Z,94595.14
2018-04-15T18:22:41.954Z,94597.55
2018-04-15T18:25:15.259Z,94594.61
2018-04-15T18:27:49.372Z,94583.44
2018-04-15T18:30:22.634Z,94588.14
2018-04-15T18:32:55.911Z,94591.48
2018-04-15T18:35:29.159Z,94590.70
2018-04-15T18:38:02.445Z,94602.95
2018-04-15T18:40:35.703Z,94617.44
2018-04-15T18:43:09.747Z,94617.99
2018-04-15T18:45:43.015Z,94625.39
2018-04-15T18:48:17.049Z,94624.41
2018-04-15T18:50:50.316Z,94622.15
2018-04-15T18:53:23.625Z,94619.76
2018-04-15T18:55:57.644Z,94619.17
2018-04-15T18:58:30.924Z,94627.52
2018-04-15T19:01:05.054Z,94632.20
2018-04-15T19:03:38.345Z,94637.27
2018-04-15T19:06:12.372Z,94633.05
2018-04-15T19:08:45.658Z,94636.84
2018-04-15T19:11:18.913Z,94638.79
2018-04-15T19:13:52.193Z,94639.04
2018-04-15T19:16:25.444Z,94630.05
2018-04-15T19:18:58.719Z,94638.20
2018-04-15T19:21:31.980Z,94635.42
2018-04-15T19:24:05.912Z,94634.61
2018-04-15T19:26:39.925Z,94636.02
2018-04-15T19:29:13.964Z,94641.05
2018-04-15T19:31:47.218Z,94648.78
2018-04-15T19:34:21.265Z,94642.70
2018-04-15T19:36:54.531Z,94639.89
2018-04-15T19:39:28.572Z,94650.54
2018-04-15T19:42:01.889Z,94650.66
2018-04-15T19:44:35.892Z,94647.35
2018-04-15T19:47:09.151Z,94660.72
2018-04-15T19:49:42.463Z,94662.66
2018-04-15T19:52:15.690Z,94660.16
2018-04-15T19:54:48.945Z,94660.91
2018-04-15T19:57:22.225Z,94651.41
2018-04-15T19:59:56.240Z,94641.88
2018-04-15T20:02:30.281Z,94634.34
2018-04-15T20:05:03.563Z,94634.45
2018-04-15T20:07:37.578Z,94643.41
2018-04-15T20:10:10.836Z,94642.66
2018-04-15T20:12:44.893Z,94646.91
2018-04-15T20:15:18.135Z,94650.51
2018-04-15T20:17:52.186Z,94653.91
2018-04-15T20:20:25.447Z,94656.31
2018-04-15T20:22:58.711Z,94661.03
2018-04-15T20:25:31.976Z,94661.16
2018-04-15T20:28:05.269Z,94670.27
2018-04-15T20:30:38.526Z,94664.09
2018-04-15T20:33:11.808Z,94651.84
2018-04-15T20:35:45.068Z,94650.22
2018-04-15T20:38:23.461Z,94644.45
2018-04-15T20:40:56.709Z,94657.06
2018-04-15T20:43:30.131Z,94657.69
2018-04-15T20:46:04.156Z,94662.49
2018-04-15T20:48:37.433Z,94660.31
2018-04-15T20:51:11.463Z,94661.89
2018-04-15T20:53:44.740Z,94657.80
2018-04-15T20:56:18.004Z,94653.34
2018-04-15T20:58:51.289Z,94653.02
2018-04-15T21:01:24.552Z,94658.48
2018-04-15T21:03:57.855Z,94668.20
2018-04-15T21:06:31.112Z,94679.96
2018-04-15T21:09:04.389Z,94674.86
2018-04-15T21:11:37.685Z,94677.14
2018-04-15T21:14:12.015Z,94677.32
2018-04-15T21:16:46.033Z,94679.03
2018-04-15T21:19:19.307Z,94675.41
2018-04-15T21:21:52.560Z,94683.00
2018-04-15T21:24:25.852Z,94684.58
2018-04-15T21:26:59.121Z,94685.36
2018-04-15T21:29:32.383Z,94691.95
2018-04-15T21:32:05.649Z,94692.64
